createdAt,value
2019-05-13T00:01:15.364Z,10.90
2019-05-13T00:03:45.543Z,10.90
2019-05-13T00:06:15.860Z,10.80
2019-05-13T00:08:46.106Z,10.60
2019-05-13T00:11:16.396Z,10.60
2019-05-13T00:13:46.590Z,10.80
2019-05-13T00:16:16.773Z,10.90
2019-05-13T00:18:46.956Z,10.80
2019-05-13T00:21:17.201Z,10.80
2019-05-13T00:23:47.773Z,10.50
2019-05-13T00:26:17.973Z,10.70
2019-05-13T00:28:48.181Z,10.50
2019-05-13T00:31:18.560Z,10.80
2019-05-13T00:33:48.832Z,10.90
2019-05-13T00:36:19.079Z,10.90
2019-05-13T00:38:49.268Z,10.70
2019-05-13T00:41:19.467Z,10.60
2019-05-13T00:43:49.720Z,10.40
2019-05-13T00:46:19.942Z,10.30
2019-05-13T00:48:50.201Z,10.30
2019-05-13T00:51:20.401Z,10.30
2019-05-13T00:53:50.599Z,10.20
2019-05-13T00:56:20.797Z,10.40
2019-05-13T00:58:51.050Z,10.70
2019-05-13T01:01:21.338Z,10.50
2019-05-13T01:03:53.299Z,10.40
2019-05-13T01:06:23.788Z,10.70
2019-05-13T01:08:54.041Z,10.90
2019-05-13T01:11:24.334Z,10.90
2019-05-13T01:13:54.582Z,11.00
2019-05-13T01:16:24.849Z,11.00
2019-05-13T01:18:55.026Z,11.10
2019-05-13T01:21:25.230Z,11.20
2019-05-13T01:23:55.476Z,11.20
2019-05-13T01:26:25.692Z,11.20
2019-05-13T01:28:55.861Z,11.00
2019-05-13T01:31:26.069Z,11.10
2019-05-13T01:33:56.315Z,11.00
2019-05-13T01:36:26.522Z,11.00
2019-05-13T01:38:56.704Z,10.80
2019-05-13T01:41:27.020Z,10.80
2019-05-13T01:43:57.174Z,10.80
2019-05-13T01:46:27.516Z,10.70
2019-05-13T01:48:57.684Z,10.70
2019-05-13T01:51:27.921Z,10.20
2019-05-13T01:53:58.200Z,10.30
2019-05-13T01:56:28.441Z,10.60
2019-05-13T01:58:58.697Z,10.70
2019-05-13T02:01:28.984Z,10.80
2019-05-13T02:03:59.217Z,10.80
2019-05-13T02:06:29.683Z,10.80
2019-05-13T02:08:59.866Z,11.00
2019-05-13T02:11:30.151Z,10.80
2019-05-13T02:14:00.468Z,10.80
2019-05-13T02:16:30.732Z,10.80
2019-05-13T02:19:00.918Z,10.80
2019-05-13T02:21:33.472Z,10.80
2019-05-13T02:24:04.353Z,10.80
2019-05-13T02:26:34.851Z,10.80
2019-05-13T02:29:05.194Z,10.70
2019-05-13T02:31:45.957Z,10.80
2019-05-13T02:34:07.385Z,10.80
2019-05-13T02:36:37.626Z,10.70
2019-05-13T02:39:08.268Z,10.50
2019-05-13T02:41:38.503Z,10.10
2019-05-13T02:44:11.964Z,10.00
2019-05-13T02:46:43.953Z,10.10
2019-05-13T02:49:12.665Z,9.90
2019-05-13T02:51:43.277Z,10.00
2019-05-13T02:54:13.566Z,9.90
2019-05-13T02:56:43.750Z,10.00
2019-05-13T02:59:14.079Z,10.00
2019-05-13T03:01:44.294Z,9.70
2019-05-13T03:04:14.528Z,9.50
2019-05-13T03:06:44.721Z,9.70
2019-05-13T03:09:14.894Z,9.80
2019-05-13T03:11:45.066Z,10.00
2019-05-13T03:14:15.366Z,10.20
2019-05-13T03:17:03.242Z,10.20
2019-05-13T03:19:33.135Z,10.20
2019-05-13T03:22:03.669Z,9.70
2019-05-13T03:24:33.935Z,10.00
2019-05-13T03:27:04.213Z,9.80
2019-05-13T03:29:34.427Z,9.70
2019-05-13T03:32:06.326Z,9.50
2019-05-13T03:34:36.875Z,9.20
2019-05-13T03:37:08.181Z,9.20
2019-05-13T03:39:43.164Z,9.40
2019-05-13T03:42:13.600Z,9.60
2019-05-13T03:44:44.961Z,9.50
2019-05-13T03:47:15.322Z,9.70
2019-05-13T03:49:46.119Z,9.70
2019-05-13T03:52:16.285Z,9.90
2019-05-13T03:54:47.467Z,10.00
2019-05-13T03:57:17.679Z,9.80
2019-05-13T03:59:48.735Z,9.70
2019-05-13T04:02:22.389Z,9.80
2019-05-13T04:04:53.040Z,9.50
2019-05-13T04:07:23.845Z,9.70
2019-05-13T04:09:54.187Z,9.90
2019-05-13T04:12:28.151Z,10.00
2019-05-13T04:14:56.333Z,10.00
2019-05-13T04:17:26.669Z,10.10
2019-05-13T04:19:57.137Z,10.10
2019-05-13T04:22:27.401Z,10.10
2019-05-13T04:24:57.821Z,10.10
2019-05-13T04:27:28.195Z,10.10
2019-05-13T04:29:58.508Z,10.20
2019-05-13T04:32:32.740Z,10.20
2019-05-13T04:35:03.844Z,10.10
2019-05-13T04:37:33.230Z,10.10
2019-05-13T04:40:04.224Z,10.20
2019-05-13T04:42:34.612Z,10.20
2019-05-13T04:45:05.568Z,10.10
2019-05-13T04:47:35.800Z,10.10
2019-05-13T04:50:06.547Z,10.20
2019-05-13T04:52:36.911Z,10.20
2019-05-13T04:55:07.865Z,9.70
2019-05-13T04:57:38.082Z,9.80
2019-05-13T05:00:12.607Z,9.70
2019-05-13T05:03:13.745Z,9.60
2019-05-13T05:06:16.510Z,9.70
2019-05-13T05:10:10.478Z,9.90
2019-05-13T05:12:44.590Z,10.10
2019-05-13T05:15:41.758Z,10.10
2019-05-13T05:18:35.227Z,10.10
2019-05-13T05:21:13.795Z,9.90
2019-05-13T05:24:32.325Z,9.90
2019-05-13T05:28:04.874Z,10.00
2019-05-13T05:31:04.959Z,10.10
2019-05-13T05:34:07.226Z,10.10
2019-05-13T05:36:57.265Z,10.30
2019-05-13T05:39:28.000Z,10.20
2019-05-13T05:41:59.231Z,10.30
2019-05-13T05:44:32.410Z,10.30
2019-05-13T05:47:03.581Z,10.40
2019-05-13T05:49:33.844Z,10.40
2019-05-13T05:52:06.106Z,10.50
2019-05-13T05:54:38.117Z,10.60
2019-05-13T05:57:08.984Z,10.60
2019-05-13T05:59:39.283Z,10.50
2019-05-13T06:02:11.931Z,10.60
2019-05-13T06:04:43.073Z,10.50
2019-05-13T06:07:14.054Z,10.50
2019-05-13T06:09:44.314Z,10.40
2019-05-13T06:12:15.001Z,10.50
2019-05-13T06:14:45.688Z,10.50
2019-05-13T06:17:16.301Z,10.60
2019-05-13T06:19:46.573Z,10.70
2019-05-13T06:22:16.778Z,10.90
2019-05-13T06:24:47.016Z,11.70
2019-05-13T06:27:21.185Z,12.80
2019-05-13T06:29:52.069Z,13.70
2019-05-13T06:32:25.880Z,14.20
2019-05-13T06:34:53.187Z,14.70
2019-05-13T06:37:23.389Z,15.20
2019-05-13T06:39:53.577Z,15.10
2019-05-13T06:42:23.802Z,15.30
2019-05-13T06:44:53.985Z,15.60
2019-05-13T06:47:24.183Z,15.40
2019-05-13T06:49:54.414Z,15.60
2019-05-13T06:52:24.703Z,15.80
2019-05-13T06:54:54.888Z,15.90
2019-05-13T06:57:25.168Z,16.10
2019-05-13T06:59:55.421Z,16.10
2019-05-13T07:02:26.360Z,16.20
2019-05-13T07:04:57.852Z,15.60
2019-05-13T07:07:28.967Z,15.40
2019-05-13T07:10:02.246Z,15.70
2019-05-13T07:12:31.561Z,16.20
2019-05-13T07:15:02.565Z,16.30
2019-05-13T07:17:32.924Z,16.10
2019-05-13T07:20:03.318Z,16.20
2019-05-13T07:22:33.536Z,16.00
2019-05-13T07:25:03.849Z,15.80
2019-05-13T07:27:34.145Z,15.90
2019-05-13T07:30:04.610Z,16.00
2019-05-13T07:32:34.903Z,16.10
2019-05-13T07:35:05.327Z,16.30
2019-05-13T07:37:36.979Z,16.50
2019-05-13T07:40:07.424Z,16.90
2019-05-13T07:42:37.685Z,17.20
2019-05-13T07:45:07.987Z,17.30
2019-05-13T07:47:38.187Z,17.20
2019-05-13T07:50:08.569Z,17.40
2019-05-13T07:52:38.820Z,17.70
2019-05-13T07:55:11.792Z,18.00
2019-05-13T07:57:42.293Z,18.00
2019-05-13T08:00:12.895Z,18.00
2019-05-13T08:02:43.227Z,18.10
2019-05-13T08:05:13.827Z,18.40
2019-05-13T08:07:44.192Z,18.30
2019-05-13T08:10:14.734Z,18.10
2019-05-13T08:12:45.031Z,17.90
2019-05-13T08:15:15.556Z,17.80
2019-05-13T08:17:47.776Z,17.70
2019-05-13T08:20:17.827Z,17.90
2019-05-13T08:22:48.174Z,17.90
2019-05-13T08:25:18.335Z,18.40
2019-05-13T08:27:48.596Z,18.10
2019-05-13T08:30:18.950Z,17.80
2019-05-13T08:32:49.202Z,17.70
2019-05-13T08:35:19.485Z,17.70
2019-05-13T08:37:51.845Z,17.70
2019-05-13T08:40:23.400Z,17.30
2019-05-13T08:42:54.075Z,17.30
2019-05-13T08:45:24.414Z,17.30
2019-05-13T08:47:54.652Z,17.60
2019-05-13T08:50:24.921Z,17.40
2019-05-13T08:52:55.196Z,17.40
2019-05-13T08:55:25.489Z,17.20
2019-05-13T08:57:55.785Z,16.80
2019-05-13T09:00:46.977Z,17.10
2019-05-13T09:03:17.675Z,17.20
2019-05-13T09:05:48.157Z,16.70
2019-05-13T09:08:18.911Z,16.20
2019-05-13T09:10:49.219Z,16.20
2019-05-13T09:13:19.524Z,16.30
2019-05-13T09:15:51.633Z,16.40
2019-05-13T09:18:22.691Z,16.30
2019-05-13T09:20:53.301Z,16.10
2019-05-13T09:23:23.583Z,16.20
2019-05-13T09:25:53.784Z,16.20
2019-05-13T09:28:23.988Z,16.20
2019-05-13T09:30:54.286Z,16.20
2019-05-13T09:33:24.625Z,16.30
2019-05-13T09:35:55.026Z,16.30
2019-05-13T09:38:25.230Z,16.40
2019-05-13T09:40:55.609Z,16.40
2019-05-13T09:43:25.803Z,16.10
2019-05-13T09:45:56.157Z,16.00
2019-05-13T09:48:26.353Z,16.00
2019-05-13T09:50:56.556Z,15.90
2019-05-13T09:53:26.780Z,15.90
2019-05-13T09:55:57.102Z,15.90
2019-05-13T09:58:29.778Z,15.90
2019-05-13T10:00:59.366Z,15.80
2019-05-13T10:03:32.782Z,15.90
2019-05-13T10:06:02.615Z,16.10
2019-05-13T10:08:33.087Z,16.10
2019-05-13T10:11:03.406Z,16.20
2019-05-13T10:13:33.604Z,16.30
2019-05-13T10:16:03.903Z,16.40
2019-05-13T10:18:34.175Z,16.40
2019-05-13T10:21:04.718Z,16.50
2019-05-13T10:23:35.102Z,16.70
2019-05-13T10:26:14.448Z,16.60
2019-05-13T10:28:45.184Z,16.50
2019-05-13T10:31:15.472Z,16.80
2019-05-13T10:33:45.799Z,16.60
2019-05-13T10:36:16.128Z,16.60
2019-05-13T10:38:46.366Z,16.70
2019-05-13T10:41:16.648Z,16.60
2019-05-13T10:43:47.201Z,16.40
2019-05-13T10:46:17.515Z,16.20
2019-05-13T10:48:47.728Z,16.20
2019-05-13T10:51:17.951Z,16.20
2019-05-13T10:53:48.270Z,16.10
2019-05-13T10:56:18.502Z,16.30
2019-05-13T10:58:48.838Z,16.40
2019-05-13T11:01:22.310Z,16.40
2019-05-13T11:03:52.391Z,16.40
2019-05-13T11:06:22.996Z,16.30
2019-05-13T11:08:53.895Z,16.40
2019-05-13T11:11:24.621Z,16.50
2019-05-13T11:13:59.344Z,16.70
2019-05-13T11:16:26.749Z,16.90
2019-05-13T11:18:57.045Z,16.90
2019-05-13T11:21:27.270Z,16.80
2019-05-13T11:23:57.491Z,16.70
2019-05-13T11:26:27.700Z,16.80
2019-05-13T11:28:57.959Z,17.00
2019-05-13T11:31:28.638Z,17.10
2019-05-13T11:34:01.806Z,17.20
2019-05-13T11:36:33.295Z,17.10
2019-05-13T11:39:03.196Z,17.20
2019-05-13T11:41:33.533Z,17.20
2019-05-13T11:44:12.695Z,17.10
2019-05-13T11:46:35.758Z,17.10
2019-05-13T11:49:06.820Z,17.10
2019-05-13T11:51:37.029Z,16.90
2019-05-13T11:54:07.455Z,16.80
2019-05-13T11:56:44.863Z,16.70
2019-05-13T11:59:13.360Z,16.60
2019-05-13T12:01:42.737Z,16.50
2019-05-13T12:04:13.121Z,16.60
2019-05-13T12:06:48.793Z,16.70
2019-05-13T12:09:15.719Z,16.80
2019-05-13T12:11:46.037Z,17.00
2019-05-13T12:14:39.298Z,17.20
2019-05-13T12:16:48.251Z,17.40
2019-05-13T12:19:18.596Z,17.50
2019-05-13T12:21:48.782Z,17.50
2019-05-13T12:24:22.116Z,17.40
2019-05-13T12:26:53.086Z,17.30
2019-05-13T12:29:22.963Z,17.40
2019-05-13T12:31:53.313Z,17.50
2019-05-13T12:34:23.566Z,17.60
2019-05-13T12:36:53.891Z,17.70
2019-05-13T12:39:24.226Z,17.80
2019-05-13T12:41:54.625Z,17.90
2019-05-13T12:44:24.922Z,18.10
2019-05-13T12:46:55.441Z,17.90
2019-05-13T12:49:32.049Z,17.90
2019-05-13T12:52:03.536Z,17.90
2019-05-13T12:54:32.277Z,17.80
2019-05-13T12:57:03.585Z,17.70
2019-05-13T12:59:33.477Z,17.80
2019-05-13T13:02:03.763Z,18.00
2019-05-13T13:04:34.077Z,18.00
2019-05-13T13:07:04.915Z,17.90
2019-05-13T13:09:35.110Z,18.00
2019-05-13T13:12:05.426Z,17.90
2019-05-13T13:14:39.410Z,17.90
2019-05-13T13:17:07.610Z,18.00
2019-05-13T13:19:37.858Z,17.90
2019-05-13T13:22:08.254Z,17.90
2019-05-13T13:24:47.036Z,17.70
2019-05-13T13:27:18.069Z,17.60
2019-05-13T13:29:43.319Z,17.40
2019-05-13T13:32:13.789Z,17.50
2019-05-13T13:34:44.460Z,17.50
2019-05-13T13:37:14.719Z,17.60
2019-05-13T13:39:45.224Z,17.70
2019-05-13T13:42:15.387Z,17.80
2019-05-13T13:44:45.688Z,17.90
2019-05-13T13:47:16.055Z,17.80
2019-05-13T13:49:46.342Z,17.80
2019-05-13T13:52:16.660Z,17.80
2019-05-13T13:54:46.931Z,17.80
2019-05-13T13:57:17.141Z,17.80
2019-05-13T14:00:16.231Z,17.80
2019-05-13T14:02:23.958Z,17.90
2019-05-13T14:04:54.111Z,17.90
2019-05-13T14:07:31.227Z,17.90
2019-05-13T14:09:55.295Z,17.90
2019-05-13T14:12:25.496Z,17.90
2019-05-13T14:14:55.809Z,17.80
2019-05-13T14:17:26.792Z,17.80
2019-05-13T14:19:57.084Z,17.80
2019-05-13T14:22:27.344Z,17.80
2019-05-13T14:24:57.640Z,17.70
2019-05-13T14:27:28.133Z,17.60
2019-05-13T14:29:58.365Z,17.60
2019-05-13T14:32:28.664Z,17.80
2019-05-13T14:34:58.953Z,17.90
2019-05-13T14:37:31.813Z,17.90
2019-05-13T14:40:02.612Z,17.80
2019-05-13T14:42:32.840Z,17.80
2019-05-13T14:45:03.151Z,17.80
2019-05-13T14:47:33.403Z,17.90
2019-05-13T14:50:03.937Z,17.70
2019-05-13T14:52:34.201Z,17.70
2019-05-13T14:55:05.010Z,17.60
2019-05-13T14:57:35.246Z,17.40
2019-05-13T15:00:07.139Z,17.50
2019-05-13T15:02:37.723Z,17.40
2019-05-13T15:05:08.257Z,17.60
2019-05-13T15:07:38.572Z,17.70
2019-05-13T15:10:10.213Z,17.70
2019-05-13T15:12:41.510Z,17.60
2019-05-13T15:15:12.833Z,17.60
2019-05-13T15:17:43.288Z,17.60
2019-05-13T15:20:13.799Z,17.60
2019-05-13T15:22:44.008Z,17.50
2019-05-13T15:25:14.370Z,17.30
2019-05-13T15:27:44.635Z,17.20
2019-05-13T15:30:18.035Z,17.20
2019-05-13T15:32:47.226Z,17.20
2019-05-13T15:35:17.582Z,17.20
2019-05-13T15:37:47.848Z,17.40
2019-05-13T15:40:18.161Z,17.30
2019-05-13T15:42:48.784Z,17.20
2019-05-13T15:45:21.152Z,17.00
2019-05-13T15:47:51.677Z,16.80
2019-05-13T15:50:22.356Z,16.90
2019-05-13T15:52:52.626Z,17.00
2019-05-13T15:55:23.240Z,17.10
2019-05-13T15:57:53.536Z,17.00
2019-05-13T16:00:23.951Z,17.00
2019-05-13T16:02:54.280Z,17.10
2019-05-13T16:05:24.500Z,17.10
2019-05-13T16:07:54.783Z,17.20
2019-05-13T16:10:25.084Z,17.30
2019-05-13T16:12:55.411Z,17.30
2019-05-13T16:15:25.741Z,17.20
2019-05-13T16:17:56.041Z,17.00
2019-05-13T16:20:26.364Z,16.90
2019-05-13T16:22:56.827Z,16.90
2019-05-13T16:25:27.193Z,16.80
2019-05-13T16:27:57.451Z,16.80
2019-05-13T16:30:27.880Z,16.90
2019-05-13T16:32:58.093Z,16.90
2019-05-13T16:35:28.432Z,16.90
2019-05-13T16:37:59.024Z,16.90
2019-05-13T16:40:36.142Z,16.80
2019-05-13T16:43:02.143Z,16.70
2019-05-13T16:45:32.414Z,16.70
2019-05-13T16:48:04.191Z,16.70
2019-05-13T16:50:34.516Z,16.70
2019-05-13T16:53:04.972Z,16.70
2019-05-13T16:55:35.457Z,16.60
2019-05-13T16:58:05.681Z,16.50
2019-05-13T17:00:36.025Z,16.40
2019-05-13T17:03:06.269Z,16.30
2019-05-13T17:05:36.557Z,16.20
2019-05-13T17:08:06.836Z,16.20
2019-05-13T17:10:37.109Z,16.20
2019-05-13T17:13:07.461Z,16.30
2019-05-13T17:15:37.783Z,16.30
2019-05-13T17:18:11.966Z,16.30
2019-05-13T17:20:41.448Z,16.30
2019-05-13T17:23:12.576Z,16.20
2019-05-13T17:25:43.015Z,16.10
2019-05-13T17:28:13.607Z,16.10
2019-05-13T17:30:44.127Z,16.00
2019-05-13T17:33:15.198Z,16.00
2019-05-13T17:35:45.562Z,16.00
2019-05-13T17:38:16.575Z,16.10
2019-05-13T17:40:50.190Z,16.10
2019-05-13T17:43:21.741Z,16.00
2019-05-13T17:45:52.426Z,16.00
2019-05-13T17:48:29.171Z,16.00
2019-05-13T17:50:54.829Z,16.00
2019-05-13T17:53:25.094Z,16.00
2019-05-13T17:55:55.303Z,16.00
2019-05-13T17:58:25.636Z,16.00
2019-05-13T18:00:55.990Z,16.00
2019-05-13T18:03:26.387Z,15.90
2019-05-13T18:05:56.665Z,15.90
2019-05-13T18:08:26.960Z,15.90
2019-05-13T18:10:57.304Z,15.90
2019-05-13T18:13:27.625Z,15.90
2019-05-13T18:15:57.937Z,15.80
2019-05-13T18:18:40.538Z,15.80
2019-05-13T18:21:01.498Z,15.80
2019-05-13T18:23:32.055Z,15.80
2019-05-13T18:26:02.375Z,15.70
2019-05-13T18:28:32.676Z,15.70
2019-05-13T18:31:03.041Z,15.70
2019-05-13T18:33:33.347Z,15.70
2019-05-13T18:36:03.685Z,15.60
2019-05-13T18:38:34.040Z,15.60
2019-05-13T18:41:04.362Z,15.50
2019-05-13T18:43:34.640Z,15.50
2019-05-13T18:46:05.005Z,15.40
2019-05-13T18:48:35.281Z,15.40
2019-05-13T18:51:05.576Z,15.40
2019-05-13T18:53:36.057Z,15.30
2019-05-13T18:56:06.319Z,15.30
2019-05-13T18:58:36.607Z,15.30
2019-05-13T19:01:06.909Z,15.30
2019-05-13T19:03:37.286Z,15.30
2019-05-13T19:06:07.522Z,15.20
2019-05-13T19:08:37.812Z,15.20
2019-05-13T19:11:08.144Z,15.00
2019-05-13T19:13:38.392Z,15.00
2019-05-13T19:16:08.662Z,15.00
2019-05-13T19:18:39.049Z,14.90
2019-05-13T19:21:11.154Z,14.90
2019-05-13T19:23:41.984Z,14.80
2019-05-13T19:26:12.318Z,14.80
2019-05-13T19:28:42.602Z,14.80
2019-05-13T19:31:12.904Z,14.70
2019-05-13T19:33:43.209Z,14.70
2019-05-13T19:36:13.456Z,14.70
2019-05-13T19:38:43.778Z,14.60
2019-05-13T19:41:14.065Z,14.60
2019-05-13T19:43:44.341Z,14.50
2019-05-13T19:46:14.650Z,14.50
2019-05-13T19:48:44.936Z,14.50
2019-05-13T19:51:16.028Z,14.40
2019-05-13T19:53:46.320Z,14.40
2019-05-13T19:56:16.773Z,14.40
2019-05-13T19:58:47.136Z,14.30
2019-05-13T20:01:21.715Z,14.20
2019-05-13T20:03:52.231Z,14.20
2019-05-13T20:06:22.477Z,14.20
2019-05-13T20:08:52.881Z,14.20
2019-05-13T20:11:23.181Z,14.20
2019-05-13T20:13:54.074Z,14.10
2019-05-13T20:16:24.372Z,14.10
2019-05-13T20:18:54.692Z,14.10
2019-05-13T20:21:24.946Z,14.10
2019-05-13T20:23:55.259Z,14.10
2019-05-13T20:26:25.598Z,14.10
2019-05-13T20:28:55.931Z,14.10
2019-05-13T20:31:26.243Z,14.10
2019-05-13T20:33:56.453Z,14.00
2019-05-13T20:36:26.747Z,14.10
2019-05-13T20:38:56.945Z,14.10
2019-05-13T20:41:27.264Z,14.10
2019-05-13T20:43:57.556Z,14.10
2019-05-13T20:46:27.860Z,14.20
2019-05-13T20:48:58.169Z,14.10
2019-05-13T20:51:28.524Z,14.10
2019-05-13T20:53:58.804Z,14.00
2019-05-13T20:56:31.621Z,13.90
2019-05-13T20:59:01.043Z,14.00
2019-05-13T21:01:31.394Z,13.90
2019-05-13T21:04:01.888Z,13.90
2019-05-13T21:06:32.511Z,13.90
2019-05-13T21:09:02.853Z,13.90
2019-05-13T21:11:33.086Z,13.80
2019-05-13T21:14:03.311Z,13.80
2019-05-13T21:16:33.605Z,13.70
2019-05-13T21:19:03.876Z,13.70
2019-05-13T21:21:34.162Z,13.60
2019-05-13T21:24:04.371Z,13.60
2019-05-13T21:26:34.700Z,13.60
2019-05-13T21:29:04.924Z,13.60
2019-05-13T21:31:35.243Z,13.60
2019-05-13T21:34:05.480Z,13.40
2019-05-13T21:36:35.748Z,13.40
2019-05-13T21:39:06.762Z,12.80
2019-05-13T21:41:37.016Z,12.80
2019-05-13T21:44:07.325Z,12.50
2019-05-13T21:46:37.657Z,12.60
2019-05-13T21:49:08.013Z,12.40
2019-05-13T21:51:38.288Z,12.10
2019-05-13T21:54:08.560Z,12.10
2019-05-13T21:56:38.849Z,12.20
2019-05-13T21:59:09.100Z,12.30
2019-05-13T22:01:42.302Z,12.00
2019-05-13T22:04:12.550Z,12.20
2019-05-13T22:06:42.842Z,12.00
2019-05-13T22:09:13.327Z,12.30
2019-05-13T22:11:43.556Z,12.20
2019-05-13T22:14:13.771Z,12.00
2019-05-13T22:16:43.967Z,12.30
2019-05-13T22:19:14.262Z,12.40
2019-05-13T22:21:44.585Z,12.50
2019-05-13T22:24:14.849Z,12.50
2019-05-13T22:26:45.113Z,12.50
2019-05-13T22:29:15.361Z,12.10
2019-05-13T22:31:45.532Z,11.90
2019-05-13T22:34:15.820Z,12.00
2019-05-13T22:36:46.135Z,11.90
2019-05-13T22:39:16.399Z,11.80
2019-05-13T22:41:46.662Z,12.00
2019-05-13T22:44:16.972Z,12.20
2019-05-13T22:46:47.221Z,11.90
2019-05-13T22:49:17.502Z,11.60
2019-05-13T22:51:47.719Z,11.70
2019-05-13T22:54:17.912Z,11.90
2019-05-13T22:56:48.225Z,12.00
2019-05-13T22:59:18.492Z,12.10
2019-05-13T23:01:48.771Z,11.80
2019-05-13T23:04:19.052Z,11.90
2019-05-13T23:06:51.835Z,11.80
2019-05-13T23:09:21.627Z,11.80
2019-05-13T23:11:51.929Z,11.40
2019-05-13T23:14:22.215Z,11.40
2019-05-13T23:16:52.512Z,11.20
2019-05-13T23:19:22.733Z,11.30
2019-05-13T23:21:53.034Z,11.30
2019-05-13T23:24:23.317Z,11.20
2019-05-13T23:26:53.561Z,11.30
2019-05-13T23:29:23.858Z,11.40
2019-05-13T23:31:54.054Z,11.60
2019-05-13T23:34:24.291Z,11.30
2019-05-13T23:36:54.596Z,11.50
2019-05-13T23:39:24.888Z,11.70
2019-05-13T23:41:55.084Z,11.40
2019-05-13T23:44:28.162Z,11.20
2019-05-13T23:46:57.155Z,11.20
2019-05-13T23:49:27.425Z,11.20
2019-05-13T23:51:57.721Z,11.20
2019-05-13T23:54:28.009Z,11.00
2019-05-13T23:56:58.254Z,11.10
2019-05-13T23:59:28.524Z,10.90
